Meiryu Maru No.1 — JD3745 — position and weather

sailwx.info

Track history (hours):
 
Tides and Currents Weather Stations Pressure Air Temp Water Temp Dewpoint Dewpoint Depression Visibility Wind Speed Wind Dir Waves Ship Positions

Meiryu Maru No.1

Last reported at 2018-Apr-14 09:55 UTC. Time now 2018-Apr-19 19:34 UTC.
Position N 41°46' E 141°34'.

Length 75 m; draft 4 m.

Type: Cargo ship. MMSI: 431005772.

Date/timePositionNaut miles runAvg speedWind from/ knotsBaromVisibWave heightAir tempDewpointWater temp
2018-Apr-14 09:55N 41°46' E 141°34'612.8
2018-Apr-14 09:29N 41°40' E 141°34'1312.5
2018-Apr-14 08:26N 41°27' E 141°32'6 0.3
2018-Apr-13 09:18N 41°31' E 141°26'514.8
2018-Apr-13 08:57N 41°33' E 141°20'714.5
2018-Apr-13 08:30N 41°35' E 141°11'815.4
2018-Apr-13 08:01N 41°38' E 141°02'714.9
2018-Apr-13 07:31N 41°41' E 140°53'713.4
2018-Apr-13 07:00N 41°43' E 140°44'510.5
2018-Apr-13 06:30N 41°48' E 140°41'2 3.5
2018-Apr-13 06:00N 41°47' E 140°43'0 0.0
2018-Apr-13 05:30N 41°47' E 140°43'0 0.0
2018-Apr-13 05:00N 41°47' E 140°43'0 0.0
2018-Apr-13 04:30N 41°47' E 140°43'0 0.0
2018-Apr-13 03:58N 41°47' E 140°43'0 0.0
2018-Apr-13 03:30N 41°47' E 140°43'0 0.0
2018-Apr-13 03:00N 41°47' E 140°43'0 0.0
2018-Apr-13 02:30N 41°47' E 140°43'0 0.0
2018-Apr-13 02:00N 41°47' E 140°43'0 0.0
2018-Apr-13 01:30N 41°47' E 140°43'0 0.0
2018-Apr-13 01:00N 41°47' E 140°43'0 0.0
2018-Apr-13 00:30N 41°47' E 140°43'0 0.0
2018-Apr-12 23:57N 41°47' E 140°43'0 0.0
2018-Apr-12 23:30N 41°47' E 140°43'0 0.0
2018-Apr-12 22:57N 41°47' E 140°43'0 0.0
2018-Apr-12 22:30N 41°47' E 140°43'0 0.1
2018-Apr-12 21:59N 41°47' E 140°43'2 3.3
2018-Apr-12 21:27N 41°47' E 140°41'0 0.0
2018-Apr-12 21:00N 41°47' E 140°41'0 0.0
2018-Apr-12 20:30N 41°47' E 140°41'0 0.0
2018-Apr-12 20:00N 41°47' E 140°41'0 0.0
2018-Apr-12 19:27N 41°47' E 140°41'0 0.0
2018-Apr-12 19:00N 41°47' E 140°41'0 0.0
2018-Apr-12 18:31N 41°47' E 140°41'0 0.0
2018-Apr-12 18:00N 41°47' E 140°41'3 6.9
2018-Apr-12 17:31N 41°43' E 140°41'612.6
2018-Apr-12 17:00N 41°43' E 140°50'510.5
2018-Apr-12 16:30N 41°42' E 140°57'611.8
2018-Apr-12 15:59N 41°43' E 141°05'812.9
2018-Apr-12 15:23N 41°48' E 141°13'  
2018-Apr-07 21:38N 35°05' E 140°21'213.6
2018-Apr-07 21:29N 35°04' E 140°18'713.7
2018-Apr-07 20:59N 35°00' E 140°11'713.1
2018-Apr-07 20:26N 34°56' E 140°04'1212.3
2018-Apr-07 19:25N 34°51' E 139°50'10 8.0
2018-Apr-07 18:12N 35°00' E 139°45'311.3
2018-Apr-07 17:59N 35°00' E 139°48'2 1.4
2018-Apr-07 16:44N 35°00' E 139°50'0 0.0
2018-Apr-07 16:30N 35°00' E 139°50'0 0.0
2018-Apr-07 14:54N 35°00' E 139°50'0 0.0
2018-Apr-07 14:30N 35°00' E 139°50'0 0.0
2018-Apr-07 13:57N 35°00' E 139°50'0 0.0
2018-Apr-07 13:27N 35°00' E 139°50'0 0.0
2018-Apr-07 12:58N 35°00' E 139°50'0 0.0
2018-Apr-07 12:29N 35°00' E 139°50'0 0.0
2018-Apr-07 11:48N 35°00' E 139°50'0 0.0
2018-Apr-07 11:13N 35°00' E 139°50'0 0.0
2018-Apr-07 10:56N 35°00' E 139°50'0 0.0
2018-Apr-07 10:27N 35°00' E 139°50'0 0.0
2018-Apr-07 09:59N 35°00' E 139°50'0 0.0
2018-Apr-07 08:44N 35°00' E 139°50'0 0.0
2018-Apr-07 08:21N 35°00' E 139°50'0 0.0
2018-Apr-07 07:56N 35°00' E 139°50'0 0.0
2018-Apr-07 07:29N 35°00' E 139°50'0 0.0
2018-Apr-07 07:00N 35°00' E 139°50'0 0.0
2018-Apr-07 06:30N 35°00' E 139°50'0 0.0
2018-Apr-07 05:13N 35°00' E 139°50'0 0.0
2018-Apr-07 04:45N 35°00' E 139°50'0 0.1
2018-Apr-07 04:26N 35°00' E 139°50'0 0.0
2018-Apr-07 03:58N 35°00' E 139°50'0 0.0
2018-Apr-07 03:28N 35°00' E 139°50'0 0.0
2018-Apr-07 03:00N 35°00' E 139°50'0 0.1
2018-Apr-07 02:20N 35°00' E 139°50'0 0.1
2018-Apr-07 01:52N 35°00' E 139°50'0 0.0
2018-Apr-07 01:26N 35°00' E 139°50'0 0.0
2018-Apr-07 00:55N 35°00' E 139°50'0 0.0
2018-Apr-07 00:29N 35°00' E 139°50'0 0.0
2018-Apr-06 23:51N 35°00' E 139°50'0 0.1
2018-Apr-06 23:26N 35°00' E 139°50'0 0.0
2018-Apr-06 22:50N 35°00' E 139°50'0 0.0
2018-Apr-06 22:29N 35°00' E 139°50'0 0.0
2018-Apr-06 21:58N 35°00' E 139°50'0 0.0
2018-Apr-06 21:20N 35°00' E 139°50'0 0.0
2018-Apr-06 20:51N 35°00' E 139°50'0 0.0
2018-Apr-06 20:27N 35°00' E 139°50'0 0.0
2018-Apr-06 19:33N 35°00' E 139°50'0 0.0
2018-Apr-06 19:15N 35°00' E 139°50'0 0.0
2018-Apr-06 18:49N 35°00' E 139°50'0 0.0
2018-Apr-06 18:30N 35°00' E 139°50'0 0.0
2018-Apr-06 13:03N 35°00' E 139°50'0 0.2
2018-Apr-06 13:00N 35°00' E 139°50'0 0.0
2018-Apr-06 12:29N 35°00' E 139°50'0 0.0
2018-Apr-06 11:57N 35°00' E 139°50'0 0.0
2018-Apr-06 11:29N 35°00' E 139°50'0 0.0
2018-Apr-06 10:57N 35°00' E 139°50'0 0.0
2018-Apr-06 10:27N 35°00' E 139°50'0 0.0
2018-Apr-06 10:00N 35°00' E 139°50'0 0.0
2018-Apr-06 09:27N 35°00' E 139°50'0 0.0
2018-Apr-06 09:00N 35°00' E 139°50'0 0.0
2018-Apr-06 08:26N 35°00' E 139°50'0 0.0
2018-Apr-06 07:59N 35°00' E 139°50'0 0.0
2018-Apr-06 07:28N 35°00' E 139°50'0 0.0
2018-Apr-06 06:58N 35°00' E 139°50'0 0.0
2018-Apr-06 06:23N 35°00' E 139°50'0 0.0
2018-Apr-06 05:57N 35°00' E 139°50'0 0.0
2018-Apr-06 05:28N 35°00' E 139°50'0 0.0
2018-Apr-06 05:00N 35°00' E 139°50'0 0.0
2018-Apr-06 04:26N 35°00' E 139°50'0 0.0
2018-Apr-06 03:59N 35°00' E 139°50'0 0.0
2018-Apr-06 03:30N 35°00' E 139°50'0 0.0
2018-Apr-06 03:00N 35°00' E 139°50'0 0.0
2018-Apr-06 02:30N 35°00' E 139°50'0 0.0
2018-Apr-06 02:00N 35°00' E 139°50'0 0.0
2018-Apr-06 01:28N 35°00' E 139°50'0 0.0
2018-Apr-06 00:57N 35°00' E 139°50'0 0.1
2018-Apr-06 00:31N 35°00' E 139°50'4 8.0
2018-Apr-06 00:00N 35°03' E 139°47'611.7
2018-Apr-05 23:30N 35°09' E 139°46'611.8
2018-Apr-05 23:00N 35°15' E 139°46'612.3
2018-Apr-05 22:30N 35°20' E 139°42'510.8
2018-Apr-05 22:00N 35°24' E 139°38'0 0.9
2018-Apr-05 21:28N 35°24' E 139°37'0 0.0
2018-Apr-05 20:58N 35°24' E 139°37'0 0.0
2018-Apr-05 20:28N 35°24' E 139°37'0 0.0
2018-Apr-05 19:58N 35°24' E 139°37'0 0.0
2018-Apr-05 19:25N 35°24' E 139°37'0 0.0
2018-Apr-05 18:58N 35°24' E 139°37'0 0.0
2018-Apr-05 18:25N 35°24' E 139°37'0 0.0
2018-Apr-05 17:58N 35°24' E 139°37'0 0.0
2018-Apr-05 17:28N 35°24' E 139°37'0 0.0
2018-Apr-05 16:58N 35°24' E 139°37'0 0.0
2018-Apr-05 16:25N 35°24' E 139°37'0 0.0
2018-Apr-05 15:58N 35°24' E 139°37'1 1.1
2018-Apr-05 15:31N 35°24' E 139°38'1 3.0
2018-Apr-05 15:00N 35°23' E 139°40'0 0.0
2018-Apr-05 14:31N 35°23' E 139°40'0 0.0
2018-Apr-05 13:58N 35°23' E 139°40'0 0.0
2018-Apr-05 13:30N 35°23' E 139°40'0 0.0
2018-Apr-05 13:00N 35°23' E 139°40'0 0.0
2018-Apr-05 12:30N 35°23' E 139°40'0 0.0
2018-Apr-05 12:00N 35°23' E 139°40'0 0.1
2018-Apr-05 11:30N 35°23' E 139°40'0 0.1
2018-Apr-05 11:00N 35°23' E 139°40'0 0.0
2018-Apr-05 10:30N 35°23' E 139°40'0 0.0
2018-Apr-05 10:00N 35°23' E 139°40'0 0.0
2018-Apr-05 09:30N 35°23' E 139°40'0 0.0
2018-Apr-05 09:00N 35°23' E 139°40'0 0.0
2018-Apr-05 08:30N 35°23' E 139°40'0 0.2
2018-Apr-05 08:00N 35°23' E 139°40'5 9.6
2018-Apr-05 07:30N 35°25' E 139°45'612.1
2018-Apr-05 07:00N 35°22' E 139°52'2 3.4
2018-Apr-05 06:26N 35°21' E 139°54'0 0.0
2018-Apr-05 06:00N 35°21' E 139°54'0 0.0
2018-Apr-05 05:30N 35°21' E 139°54'0 0.0
2018-Apr-05 05:00N 35°21' E 139°54'0 0.0
2018-Apr-05 04:30N 35°21' E 139°54'0 0.0
2018-Apr-05 04:00N 35°21' E 139°54'0 0.0
2018-Apr-05 03:30N 35°21' E 139°54'0 0.0
2018-Apr-05 03:00N 35°21' E 139°54'0 0.0
2018-Apr-05 02:30N 35°21' E 139°54'0 0.0
2018-Apr-05 02:00N 35°21' E 139°54'0 0.0
2018-Apr-05 01:30N 35°21' E 139°54'0 0.0
2018-Apr-05 01:00N 35°21' E 139°54'0 0.0
2018-Apr-05 00:30N 35°21' E 139°54'0 0.0
2018-Apr-05 00:00N 35°21' E 139°54'0 0.0
2018-Apr-04 23:30N 35°21' E 139°54'0 0.0
2018-Apr-04 23:00N 35°21' E 139°54'0 0.1
2018-Apr-04 22:30N 35°21' E 139°54'0 0.0
2018-Apr-04 22:00N 35°21' E 139°54'0 0.0
2018-Apr-04 21:30N 35°21' E 139°54'0 0.0
2018-Apr-04 21:00N 35°21' E 139°54'0 0.0
2018-Apr-04 20:30N 35°21' E 139°54'0 0.0
2018-Apr-04 20:00N 35°21' E 139°54'0 0.0
2018-Apr-04 19:30N 35°21' E 139°54'0 0.1
2018-Apr-04 19:00N 35°21' E 139°54'0 0.1
2018-Apr-04 18:30N 35°21' E 139°54'0 0.0
2018-Apr-04 18:00N 35°21' E 139°54'0 0.1
2018-Apr-04 17:29N 35°21' E 139°54'0 0.1
2018-Apr-04 17:00N 35°21' E 139°54'0 0.0
2018-Apr-04 16:30N 35°21' E 139°54'0 0.0
2018-Apr-04 16:00N 35°21' E 139°54'0 0.0
2018-Apr-04 15:30N 35°21' E 139°54'0 0.0
2018-Apr-04 15:00N 35°21' E 139°54'0 0.0
2018-Apr-04 14:30N 35°21' E 139°54'0 0.1
2018-Apr-04 14:00N 35°21' E 139°54'0 0.1
2018-Apr-04 13:30N 35°21' E 139°54'0 0.0
2018-Apr-04 12:59N 35°21' E 139°54'0 0.0
2018-Apr-04 12:28N 35°21' E 139°54'0 0.0
2018-Apr-04 12:00N 35°21' E 139°54'0 0.0
2018-Apr-04 11:30N 35°21' E 139°54'0 0.0
2018-Apr-04 11:00N 35°21' E 139°54'0 0.0
2018-Apr-04 10:30N 35°21' E 139°54'0 0.1
2018-Apr-04 09:59N 35°21' E 139°54'  
Track history (hours):
 
Tides and Currents Weather Stations Pressure Air Temp Water Temp Dewpoint Dewpoint Depression Visibility Wind Speed Wind Dir Waves Ship Positions

Meiryu Maru No.1

Last reported at 2018-Apr-14 09:55 UTC. Time now 2018-Apr-19 19:34 UTC.
Position N 41°46' E 141°34'.

Length 75 m; draft 4 m.

Type: Cargo ship. MMSI: 431005772.

Date/timePositionNaut miles runAvg speedWind from/ knotsBaromVisibWave heightAir tempDewpointWater temp
2018-Apr-14 09:55N 41°46' E 141°34'612.8
2018-Apr-14 09:29N 41°40' E 141°34'1312.5
2018-Apr-14 08:26N 41°27' E 141°32'6 0.3
2018-Apr-13 09:18N 41°31' E 141°26'514.8
2018-Apr-13 08:57N 41°33' E 141°20'714.5
2018-Apr-13 08:30N 41°35' E 141°11'815.4
2018-Apr-13 08:01N 41°38' E 141°02'714.9
2018-Apr-13 07:31N 41°41' E 140°53'713.4
2018-Apr-13 07:00N 41°43' E 140°44'510.5
2018-Apr-13 06:30N 41°48' E 140°41'2 3.5
2018-Apr-13 06:00N 41°47' E 140°43'0 0.0
2018-Apr-13 05:30N 41°47' E 140°43'0 0.0
2018-Apr-13 05:00N 41°47' E 140°43'0 0.0
2018-Apr-13 04:30N 41°47' E 140°43'0 0.0
2018-Apr-13 03:58N 41°47' E 140°43'0 0.0
2018-Apr-13 03:30N 41°47' E 140°43'0 0.0
2018-Apr-13 03:00N 41°47' E 140°43'0 0.0
2018-Apr-13 02:30N 41°47' E 140°43'0 0.0
2018-Apr-13 02:00N 41°47' E 140°43'0 0.0
2018-Apr-13 01:30N 41°47' E 140°43'0 0.0
2018-Apr-13 01:00N 41°47' E 140°43'0 0.0
2018-Apr-13 00:30N 41°47' E 140°43'0 0.0
2018-Apr-12 23:57N 41°47' E 140°43'0 0.0
2018-Apr-12 23:30N 41°47' E 140°43'0 0.0
2018-Apr-12 22:57N 41°47' E 140°43'0 0.0
2018-Apr-12 22:30N 41°47' E 140°43'0 0.1
2018-Apr-12 21:59N 41°47' E 140°43'2 3.3
2018-Apr-12 21:27N 41°47' E 140°41'0 0.0
2018-Apr-12 21:00N 41°47' E 140°41'0 0.0
2018-Apr-12 20:30N 41°47' E 140°41'0 0.0
2018-Apr-12 20:00N 41°47' E 140°41'0 0.0
2018-Apr-12 19:27N 41°47' E 140°41'0 0.0
2018-Apr-12 19:00N 41°47' E 140°41'0 0.0
2018-Apr-12 18:31N 41°47' E 140°41'0 0.0
2018-Apr-12 18:00N 41°47' E 140°41'3 6.9
2018-Apr-12 17:31N 41°43' E 140°41'612.6
2018-Apr-12 17:00N 41°43' E 140°50'510.5
2018-Apr-12 16:30N 41°42' E 140°57'611.8
2018-Apr-12 15:59N 41°43' E 141°05'812.9
2018-Apr-12 15:23N 41°48' E 141°13'  
2018-Apr-07 21:38N 35°05' E 140°21'213.6
2018-Apr-07 21:29N 35°04' E 140°18'713.7
2018-Apr-07 20:59N 35°00' E 140°11'713.1
2018-Apr-07 20:26N 34°56' E 140°04'1212.3
2018-Apr-07 19:25N 34°51' E 139°50'10 8.0
2018-Apr-07 18:12N 35°00' E 139°45'311.3
2018-Apr-07 17:59N 35°00' E 139°48'2 1.4
2018-Apr-07 16:44N 35°00' E 139°50'0 0.0
2018-Apr-07 16:30N 35°00' E 139°50'0 0.0
2018-Apr-07 14:54N 35°00' E 139°50'0 0.0
2018-Apr-07 14:30N 35°00' E 139°50'0 0.0
2018-Apr-07 13:57N 35°00' E 139°50'0 0.0
2018-Apr-07 13:27N 35°00' E 139°50'0 0.0
2018-Apr-07 12:58N 35°00' E 139°50'0 0.0
2018-Apr-07 12:29N 35°00' E 139°50'0 0.0
2018-Apr-07 11:48N 35°00' E 139°50'0 0.0
2018-Apr-07 11:13N 35°00' E 139°50'0 0.0
2018-Apr-07 10:56N 35°00' E 139°50'0 0.0
2018-Apr-07 10:27N 35°00' E 139°50'0 0.0
2018-Apr-07 09:59N 35°00' E 139°50'0 0.0
2018-Apr-07 08:44N 35°00' E 139°50'0 0.0
2018-Apr-07 08:21N 35°00' E 139°50'0 0.0
2018-Apr-07 07:56N 35°00' E 139°50'0 0.0
2018-Apr-07 07:29N 35°00' E 139°50'0 0.0
2018-Apr-07 07:00N 35°00' E 139°50'0 0.0
2018-Apr-07 06:30N 35°00' E 139°50'0 0.0
2018-Apr-07 05:13N 35°00' E 139°50'0 0.0
2018-Apr-07 04:45N 35°00' E 139°50'0 0.1
2018-Apr-07 04:26N 35°00' E 139°50'0 0.0
2018-Apr-07 03:58N 35°00' E 139°50'0 0.0
2018-Apr-07 03:28N 35°00' E 139°50'0 0.0
2018-Apr-07 03:00N 35°00' E 139°50'0 0.1
2018-Apr-07 02:20N 35°00' E 139°50'0 0.1
2018-Apr-07 01:52N 35°00' E 139°50'0 0.0
2018-Apr-07 01:26N 35°00' E 139°50'0 0.0
2018-Apr-07 00:55N 35°00' E 139°50'0 0.0
2018-Apr-07 00:29N 35°00' E 139°50'0 0.0
2018-Apr-06 23:51N 35°00' E 139°50'0 0.1
2018-Apr-06 23:26N 35°00' E 139°50'0 0.0
2018-Apr-06 22:50N 35°00' E 139°50'0 0.0
2018-Apr-06 22:29N 35°00' E 139°50'0 0.0
2018-Apr-06 21:58N 35°00' E 139°50'0 0.0
2018-Apr-06 21:20N 35°00' E 139°50'0 0.0
2018-Apr-06 20:51N 35°00' E 139°50'0 0.0
2018-Apr-06 20:27N 35°00' E 139°50'0 0.0
2018-Apr-06 19:33N 35°00' E 139°50'0 0.0
2018-Apr-06 19:15N 35°00' E 139°50'0 0.0
2018-Apr-06 18:49N 35°00' E 139°50'0 0.0
2018-Apr-06 18:30N 35°00' E 139°50'0 0.0
2018-Apr-06 13:03N 35°00' E 139°50'0 0.2
2018-Apr-06 13:00N 35°00' E 139°50'0 0.0
2018-Apr-06 12:29N 35°00' E 139°50'0 0.0
2018-Apr-06 11:57N 35°00' E 139°50'0 0.0
2018-Apr-06 11:29N 35°00' E 139°50'0 0.0
2018-Apr-06 10:57N 35°00' E 139°50'0 0.0
2018-Apr-06 10:27N 35°00' E 139°50'0 0.0
2018-Apr-06 10:00N 35°00' E 139°50'0 0.0
2018-Apr-06 09:27N 35°00' E 139°50'0 0.0
2018-Apr-06 09:00N 35°00' E 139°50'0 0.0
2018-Apr-06 08:26N 35°00' E 139°50'0 0.0
2018-Apr-06 07:59N 35°00' E 139°50'0 0.0
2018-Apr-06 07:28N 35°00' E 139°50'0 0.0
2018-Apr-06 06:58N 35°00' E 139°50'0 0.0
2018-Apr-06 06:23N 35°00' E 139°50'0 0.0
2018-Apr-06 05:57N 35°00' E 139°50'0 0.0
2018-Apr-06 05:28N 35°00' E 139°50'0 0.0
2018-Apr-06 05:00N 35°00' E 139°50'0 0.0
2018-Apr-06 04:26N 35°00' E 139°50'0 0.0
2018-Apr-06 03:59N 35°00' E 139°50'0 0.0
2018-Apr-06 03:30N 35°00' E 139°50'0 0.0
2018-Apr-06 03:00N 35°00' E 139°50'0 0.0
2018-Apr-06 02:30N 35°00' E 139°50'0 0.0
2018-Apr-06 02:00N 35°00' E 139°50'0 0.0
2018-Apr-06 01:28N 35°00' E 139°50'0 0.0
2018-Apr-06 00:57N 35°00' E 139°50'0 0.1
2018-Apr-06 00:31N 35°00' E 139°50'4 8.0
2018-Apr-06 00:00N 35°03' E 139°47'611.7
2018-Apr-05 23:30N 35°09' E 139°46'611.8
2018-Apr-05 23:00N 35°15' E 139°46'612.3
2018-Apr-05 22:30N 35°20' E 139°42'510.8
2018-Apr-05 22:00N 35°24' E 139°38'0 0.9
2018-Apr-05 21:28N 35°24' E 139°37'0 0.0
2018-Apr-05 20:58N 35°24' E 139°37'0 0.0
2018-Apr-05 20:28N 35°24' E 139°37'0 0.0
2018-Apr-05 19:58N 35°24' E 139°37'0 0.0
2018-Apr-05 19:25N 35°24' E 139°37'0 0.0
2018-Apr-05 18:58N 35°24' E 139°37'0 0.0
2018-Apr-05 18:25N 35°24' E 139°37'0 0.0
2018-Apr-05 17:58N 35°24' E 139°37'0 0.0
2018-Apr-05 17:28N 35°24' E 139°37'0 0.0
2018-Apr-05 16:58N 35°24' E 139°37'0 0.0
2018-Apr-05 16:25N 35°24' E 139°37'0 0.0
2018-Apr-05 15:58N 35°24' E 139°37'1 1.1
2018-Apr-05 15:31N 35°24' E 139°38'1 3.0
2018-Apr-05 15:00N 35°23' E 139°40'0 0.0
2018-Apr-05 14:31N 35°23' E 139°40'0 0.0
2018-Apr-05 13:58N 35°23' E 139°40'0 0.0
2018-Apr-05 13:30N 35°23' E 139°40'0 0.0
2018-Apr-05 13:00N 35°23' E 139°40'0 0.0
2018-Apr-05 12:30N 35°23' E 139°40'0 0.0
2018-Apr-05 12:00N 35°23' E 139°40'0 0.1
2018-Apr-05 11:30N 35°23' E 139°40'0 0.1
2018-Apr-05 11:00N 35°23' E 139°40'0 0.0
2018-Apr-05 10:30N 35°23' E 139°40'0 0.0
2018-Apr-05 10:00N 35°23' E 139°40'0 0.0
2018-Apr-05 09:30N 35°23' E 139°40'0 0.0
2018-Apr-05 09:00N 35°23' E 139°40'0 0.0
2018-Apr-05 08:30N 35°23' E 139°40'0 0.2
2018-Apr-05 08:00N 35°23' E 139°40'5 9.6
2018-Apr-05 07:30N 35°25' E 139°45'612.1
2018-Apr-05 07:00N 35°22' E 139°52'2 3.4
2018-Apr-05 06:26N 35°21' E 139°54'0 0.0
2018-Apr-05 06:00N 35°21' E 139°54'0 0.0
2018-Apr-05 05:30N 35°21' E 139°54'0 0.0
2018-Apr-05 05:00N 35°21' E 139°54'0 0.0
2018-Apr-05 04:30N 35°21' E 139°54'0 0.0
2018-Apr-05 04:00N 35°21' E 139°54'0 0.0
2018-Apr-05 03:30N 35°21' E 139°54'0 0.0
2018-Apr-05 03:00N 35°21' E 139°54'0 0.0
2018-Apr-05 02:30N 35°21' E 139°54'0 0.0
2018-Apr-05 02:00N 35°21' E 139°54'0 0.0
2018-Apr-05 01:30N 35°21' E 139°54'0 0.0
2018-Apr-05 01:00N 35°21' E 139°54'0 0.0
2018-Apr-05 00:30N 35°21' E 139°54'0 0.0
2018-Apr-05 00:00N 35°21' E 139°54'0 0.0
2018-Apr-04 23:30N 35°21' E 139°54'0 0.0
2018-Apr-04 23:00N 35°21' E 139°54'0 0.1
2018-Apr-04 22:30N 35°21' E 139°54'0 0.0
2018-Apr-04 22:00N 35°21' E 139°54'0 0.0
2018-Apr-04 21:30N 35°21' E 139°54'0 0.0
2018-Apr-04 21:00N 35°21' E 139°54'0 0.0
2018-Apr-04 20:30N 35°21' E 139°54'0 0.0
2018-Apr-04 20:00N 35°21' E 139°54'0 0.0
2018-Apr-04 19:30N 35°21' E 139°54'0 0.1
2018-Apr-04 19:00N 35°21' E 139°54'0 0.1
2018-Apr-04 18:30N 35°21' E 139°54'0 0.0
2018-Apr-04 18:00N 35°21' E 139°54'0 0.1
2018-Apr-04 17:29N 35°21' E 139°54'0 0.1
2018-Apr-04 17:00N 35°21' E 139°54'0 0.0
2018-Apr-04 16:30N 35°21' E 139°54'0 0.0
2018-Apr-04 16:00N 35°21' E 139°54'0 0.0
2018-Apr-04 15:30N 35°21' E 139°54'0 0.0
2018-Apr-04 15:00N 35°21' E 139°54'0 0.0
2018-Apr-04 14:30N 35°21' E 139°54'0 0.1
2018-Apr-04 14:00N 35°21' E 139°54'0 0.1
2018-Apr-04 13:30N 35°21' E 139°54'0 0.0
2018-Apr-04 12:59N 35°21' E 139°54'0 0.0
2018-Apr-04 12:28N 35°21' E 139°54'0 0.0
2018-Apr-04 12:00N 35°21' E 139°54'0 0.0
2018-Apr-04 11:30N 35°21' E 139°54'0 0.0
2018-Apr-04 11:00N 35°21' E 139°54'0 0.0
2018-Apr-04 10:30N 35°21' E 139°54'0 0.1
2018-Apr-04 09:59N 35°21' E 139°54'  

Dump ship's entire track history